createdAt,value
2018-02-27T00:00:33.125Z,44.10
2018-02-27T00:01:35.603Z,44.23
2018-02-27T00:02:38.075Z,44.42
2018-02-27T00:03:40.558Z,44.34
2018-02-27T00:04:43.043Z,44.32
2018-02-27T00:05:45.521Z,44.46
2018-02-27T00:06:48.002Z,44.35
2018-02-27T00:07:50.476Z,44.53
2018-02-27T00:08:52.940Z,44.46
2018-02-27T00:09:55.431Z,44.49
2018-02-27T00:10:57.899Z,44.47
2018-02-27T00:12:00.376Z,44.44
2018-02-27T00:13:02.873Z,44.56
2018-02-27T00:14:05.339Z,44.50
2018-02-27T00:15:07.841Z,44.57
2018-02-27T00:16:10.311Z,44.68
2018-02-27T00:17:12.775Z,44.64
2018-02-27T00:18:15.247Z,44.68
2018-02-27T00:19:17.717Z,44.73
2018-02-27T00:20:20.200Z,44.72
2018-02-27T00:21:22.677Z,44.75
2018-02-27T00:22:25.143Z,44.69
2018-02-27T00:23:27.733Z,44.81
2018-02-27T00:24:30.233Z,44.82
2018-02-27T00:25:32.761Z,44.87
2018-02-27T00:26:35.219Z,44.98
2018-02-27T00:27:37.697Z,44.89
2018-02-27T00:28:40.166Z,45.01
2018-02-27T00:29:42.650Z,45.17
2018-02-27T00:30:45.143Z,45.21
2018-02-27T00:31:47.620Z,45.18
2018-02-27T00:32:50.103Z,45.38
2018-02-27T00:33:52.570Z,45.34
2018-02-27T00:34:55.046Z,45.42
2018-02-27T00:35:57.541Z,45.64
2018-02-27T00:37:00.016Z,45.62
2018-02-27T00:38:02.495Z,45.64
2018-02-27T00:39:04.969Z,45.70
2018-02-27T00:40:07.446Z,45.72
2018-02-27T00:41:09.945Z,45.76
2018-02-27T00:42:12.411Z,45.63
2018-02-27T00:43:14.871Z,45.50
2018-02-27T00:44:17.356Z,45.54
2018-02-27T00:45:19.818Z,45.65
2018-02-27T00:46:22.317Z,45.72
2018-02-27T00:47:24.785Z,45.75
2018-02-27T00:48:27.273Z,45.75
2018-02-27T00:49:29.776Z,45.75
2018-02-27T00:50:32.266Z,45.81
2018-02-27T00:51:34.779Z,45.83
2018-02-27T00:52:37.261Z,45.89
2018-02-27T00:53:39.750Z,45.90
2018-02-27T00:54:42.211Z,45.89
2018-02-27T00:55:44.699Z,45.84
2018-02-27T00:56:47.183Z,45.86
2018-02-27T00:57:49.664Z,46.02
2018-02-27T00:58:52.145Z,46.13
2018-02-27T00:59:54.679Z,46.37
2018-02-27T01:00:57.166Z,46.25
2018-02-27T01:01:59.734Z,45.97
2018-02-27T01:03:02.225Z,46.32
2018-02-27T01:04:04.708Z,46.16
2018-02-27T01:05:07.175Z,46.11
2018-02-27T01:06:09.657Z,46.00
2018-02-27T01:07:12.135Z,45.99
2018-02-27T01:08:14.602Z,46.07
2018-02-27T01:09:17.068Z,46.22
2018-02-27T01:10:19.533Z,46.13
2018-02-27T01:11:22.011Z,45.92
2018-02-27T01:12:24.494Z,46.04
2018-02-27T01:13:27.009Z,46.00
2018-02-27T01:14:29.447Z,46.07
2018-02-27T01:15:32.026Z,46.43
2018-02-27T01:16:34.506Z,46.82
2018-02-27T01:17:37.001Z,46.79
2018-02-27T01:18:39.481Z,46.60
2018-02-27T01:19:41.970Z,46.51
2018-02-27T01:20:44.449Z,46.57
2018-02-27T01:21:46.936Z,46.67
2018-02-27T01:22:49.449Z,46.75
2018-02-27T01:23:51.936Z,46.57
2018-02-27T01:24:54.418Z,46.70
2018-02-27T01:25:57.079Z,46.61
2018-02-27T01:26:59.534Z,46.64
2018-02-27T01:28:02.034Z,46.72
2018-02-27T01:29:04.513Z,46.59
2018-02-27T01:30:06.998Z,46.53
2018-02-27T01:31:09.477Z,46.57
2018-02-27T01:32:11.947Z,46.56
2018-02-27T01:33:14.445Z,46.67
2018-02-27T01:34:16.911Z,46.75
2018-02-27T01:35:19.383Z,46.79
2018-02-27T01:36:21.873Z,46.77
2018-02-27T01:37:24.357Z,47.07
2018-02-27T01:38:26.852Z,47.36
2018-02-27T01:39:29.328Z,47.49
2018-02-27T01:40:31.791Z,47.67
2018-02-27T01:41:34.255Z,47.56
2018-02-27T01:42:36.722Z,47.63
2018-02-27T01:43:39.233Z,47.62
2018-02-27T01:44:41.700Z,47.62
2018-02-27T01:45:44.186Z,47.56
2018-02-27T01:46:46.681Z,47.49
2018-02-27T01:47:49.269Z,47.45
2018-02-27T01:48:51.779Z,47.43
2018-02-27T01:49:54.268Z,47.49
2018-02-27T01:51:08.814Z,47.38
2018-02-27T01:52:11.293Z,47.51
2018-02-27T01:53:13.759Z,47.63
2018-02-27T01:54:16.239Z,47.66
2018-02-27T01:55:18.734Z,47.60
2018-02-27T01:56:21.319Z,47.58
2018-02-27T01:57:23.804Z,47.61
2018-02-27T01:58:26.271Z,47.74
2018-02-27T01:59:28.758Z,47.70
2018-02-27T02:00:31.248Z,47.77
2018-02-27T02:01:33.715Z,47.77
2018-02-27T02:02:36.185Z,47.77
2018-02-27T02:03:38.660Z,47.77
2018-02-27T02:04:41.142Z,47.61
2018-02-27T02:05:43.639Z,47.68
2018-02-27T02:06:46.129Z,47.80
2018-02-27T02:07:48.625Z,47.82
2018-02-27T02:08:51.114Z,47.85
2018-02-27T02:09:53.613Z,47.83
2018-02-27T02:10:56.087Z,47.91
2018-02-27T02:11:58.588Z,47.85
2018-02-27T02:13:01.068Z,47.82
2018-02-27T02:14:03.560Z,47.67
2018-02-27T02:15:06.051Z,47.68
2018-02-27T02:16:08.543Z,47.59
2018-02-27T02:17:11.032Z,47.68
2018-02-27T02:18:13.499Z,47.93
2018-02-27T02:19:15.975Z,48.15
2018-02-27T02:20:18.467Z,48.17
2018-02-27T02:21:20.936Z,48.09
2018-02-27T02:22:23.402Z,48.11
2018-02-27T02:23:25.882Z,47.99
2018-02-27T02:24:28.347Z,48.01
2018-02-27T02:25:30.849Z,48.13
2018-02-27T02:26:33.326Z,48.39
2018-02-27T02:27:35.796Z,48.55
2018-02-27T02:28:38.274Z,48.65
2018-02-27T02:29:40.755Z,48.62
2018-02-27T02:30:43.261Z,48.75
2018-02-27T02:31:45.739Z,48.67
2018-02-27T02:32:48.216Z,48.63
2018-02-27T02:33:50.698Z,48.70
2018-02-27T02:34:53.172Z,48.66
2018-02-27T02:35:55.659Z,48.64
2018-02-27T02:36:58.158Z,48.46
2018-02-27T02:38:00.685Z,48.44
2018-02-27T02:39:03.154Z,48.66
2018-02-27T02:40:05.634Z,48.67
2018-02-27T02:41:08.141Z,48.64
2018-02-27T02:42:25.496Z,48.62
2018-02-27T02:43:27.974Z,48.60
2018-02-27T02:44:30.461Z,48.71
2018-02-27T02:45:32.938Z,48.82
2018-02-27T02:46:35.431Z,48.74
2018-02-27T02:47:37.911Z,48.68
2018-02-27T02:48:40.401Z,48.74
2018-02-27T02:49:42.888Z,49.13
2018-02-27T02:50:45.369Z,49.39
2018-02-27T02:51:47.867Z,49.43
2018-02-27T02:52:50.342Z,49.47
2018-02-27T02:53:52.849Z,49.39
2018-02-27T02:54:55.337Z,49.34
2018-02-27T02:55:57.814Z,49.31
2018-02-27T02:57:00.321Z,49.24
2018-02-27T02:58:02.815Z,48.95
2018-02-27T02:59:05.305Z,49.24
2018-02-27T03:00:07.778Z,49.31
2018-02-27T03:01:10.255Z,49.23
2018-02-27T03:02:12.752Z,49.29
2018-02-27T03:03:15.230Z,49.42
2018-02-27T03:04:17.703Z,49.42
2018-02-27T03:05:20.189Z,49.42
2018-02-27T03:06:22.677Z,49.48
2018-02-27T03:07:25.175Z,49.47
2018-02-27T03:08:27.639Z,49.41
2018-02-27T03:09:30.160Z,49.39
2018-02-27T03:10:32.646Z,49.48
2018-02-27T03:11:35.134Z,49.59
2018-02-27T03:12:37.631Z,49.56
2018-02-27T03:13:40.110Z,49.50
2018-02-27T03:14:42.597Z,49.27
2018-02-27T03:15:45.072Z,49.36
2018-02-27T03:16:47.549Z,49.40
2018-02-27T03:17:50.069Z,49.48
2018-02-27T03:18:52.541Z,49.47
2018-02-27T03:19:55.019Z,49.50
2018-02-27T03:20:57.495Z,49.56
2018-02-27T03:21:59.990Z,49.54
2018-02-27T03:23:02.492Z,49.48
2018-02-27T03:24:04.977Z,49.42
2018-02-27T03:25:07.462Z,49.35
2018-02-27T03:26:09.935Z,49.34
2018-02-27T03:27:12.415Z,49.43
2018-02-27T03:28:14.913Z,49.65
2018-02-27T03:29:17.394Z,49.63
2018-02-27T03:30:19.877Z,49.75
2018-02-27T03:31:22.360Z,49.70
2018-02-27T03:32:24.842Z,49.71
2018-02-27T03:33:27.343Z,49.76
2018-02-27T03:34:29.832Z,49.74
2018-02-27T03:35:32.317Z,49.75
2018-02-27T03:36:34.798Z,49.84
2018-02-27T03:37:37.287Z,49.87
2018-02-27T03:38:39.800Z,49.88
2018-02-27T03:39:42.278Z,49.94
2018-02-27T03:40:44.763Z,49.99
2018-02-27T03:41:47.247Z,49.91
2018-02-27T03:42:49.719Z,49.87
2018-02-27T03:43:52.278Z,49.60
2018-02-27T03:44:54.755Z,49.71
2018-02-27T03:45:57.231Z,49.83
2018-02-27T03:46:59.731Z,49.81
2018-02-27T03:48:02.356Z,49.86
2018-02-27T03:49:04.849Z,50.00
2018-02-27T03:50:07.319Z,49.87
2018-02-27T03:51:09.800Z,49.72
2018-02-27T03:52:15.151Z,49.79
2018-02-27T03:53:17.631Z,50.11
2018-02-27T03:54:20.107Z,50.39
2018-02-27T03:55:22.597Z,50.43
2018-02-27T03:56:25.081Z,50.58
2018-02-27T03:57:27.578Z,50.63
2018-02-27T03:58:30.077Z,50.71
2018-02-27T03:59:32.579Z,50.71
2018-02-27T04:00:35.055Z,50.74
2018-02-27T04:01:37.527Z,50.77
2018-02-27T04:02:40.017Z,50.65
2018-02-27T04:03:42.513Z,50.58
2018-02-27T04:04:45.006Z,50.61
2018-02-27T04:05:47.497Z,50.66
2018-02-27T04:06:49.971Z,50.62
2018-02-27T04:07:52.462Z,50.60
2018-02-27T04:08:54.958Z,50.64
2018-02-27T04:09:57.437Z,50.66
2018-02-27T04:10:59.915Z,50.66
2018-02-27T04:12:02.404Z,50.67
2018-02-27T04:13:04.868Z,50.66
2018-02-27T04:14:07.353Z,50.74
2018-02-27T04:15:09.830Z,50.70
2018-02-27T04:16:12.323Z,50.71
2018-02-27T04:17:14.799Z,50.68
2018-02-27T04:18:17.293Z,50.60
2018-02-27T04:19:19.770Z,50.62
2018-02-27T04:20:22.290Z,50.65
2018-02-27T04:21:24.763Z,50.84
2018-02-27T04:22:27.277Z,50.69
2018-02-27T04:23:29.765Z,50.72
2018-02-27T04:24:32.247Z,50.80
2018-02-27T04:25:34.723Z,50.67
2018-02-27T04:26:37.195Z,50.68
2018-02-27T04:27:39.690Z,50.68
2018-02-27T04:28:42.218Z,50.77
2018-02-27T04:29:44.753Z,50.96
2018-02-27T04:30:47.249Z,50.98
2018-02-27T04:31:49.723Z,51.03
2018-02-27T04:32:52.213Z,51.12
2018-02-27T04:33:54.695Z,51.04
2018-02-27T04:34:57.179Z,50.93
2018-02-27T04:35:59.681Z,50.66
2018-02-27T04:37:02.162Z,50.59
2018-02-27T04:38:04.649Z,50.67
2018-02-27T04:39:07.125Z,50.72
2018-02-27T04:40:09.617Z,50.82
2018-02-27T04:41:12.087Z,50.53
2018-02-27T04:42:14.553Z,50.75
2018-02-27T04:43:17.024Z,51.04
2018-02-27T04:44:19.498Z,50.98
2018-02-27T04:45:21.988Z,50.97
2018-02-27T04:46:24.465Z,51.08
2018-02-27T04:47:26.955Z,51.28
2018-02-27T04:48:29.442Z,51.23
2018-02-27T04:49:31.927Z,51.31
2018-02-27T04:50:34.416Z,51.44
2018-02-27T04:51:36.912Z,51.50
2018-02-27T04:52:39.387Z,51.54
2018-02-27T04:53:41.874Z,51.49
2018-02-27T04:54:44.359Z,51.48
2018-02-27T04:55:46.826Z,51.43
2018-02-27T04:56:49.327Z,51.29
2018-02-27T04:57:51.804Z,51.44
2018-02-27T04:58:54.293Z,51.49
2018-02-27T04:59:56.777Z,51.63
2018-02-27T05:00:59.251Z,51.83
2018-02-27T05:02:01.761Z,51.77
2018-02-27T05:03:04.256Z,51.83
2018-02-27T05:04:06.726Z,51.95
2018-02-27T05:05:09.202Z,51.99
2018-02-27T05:06:11.686Z,51.96
2018-02-27T05:07:14.179Z,51.96
2018-02-27T05:08:16.670Z,51.89
2018-02-27T05:09:19.155Z,51.86
2018-02-27T05:10:21.641Z,51.80
2018-02-27T05:11:24.156Z,51.81
2018-02-27T05:12:26.668Z,51.76
2018-02-27T05:13:29.160Z,51.78
2018-02-27T05:14:31.635Z,51.78
2018-02-27T05:15:34.111Z,51.82
2018-02-27T05:16:36.598Z,51.91
2018-02-27T05:17:39.105Z,51.77
2018-02-27T05:18:41.575Z,51.80
2018-02-27T05:19:44.048Z,51.76
2018-02-27T05:20:46.671Z,51.71
2018-02-27T05:21:49.162Z,51.78
2018-02-27T05:22:51.678Z,51.82
2018-02-27T05:23:54.161Z,51.79
2018-02-27T05:24:56.637Z,51.84
2018-02-27T05:25:59.141Z,51.91
2018-02-27T05:27:01.619Z,51.91
2018-02-27T05:28:04.110Z,51.87
2018-02-27T05:29:06.582Z,51.86
2018-02-27T05:30:09.064Z,51.84
2018-02-27T05:31:11.547Z,51.87
2018-02-27T05:32:14.099Z,51.69
2018-02-27T05:33:16.595Z,51.73
2018-02-27T05:34:19.074Z,52.13
2018-02-27T05:35:21.548Z,52.26
2018-02-27T05:36:24.015Z,52.26
2018-02-27T05:37:26.510Z,52.15
2018-02-27T05:38:29.024Z,52.11
2018-02-27T05:39:31.521Z,52.01
2018-02-27T05:40:34.011Z,51.91
2018-02-27T05:41:36.493Z,52.02
2018-02-27T05:42:38.988Z,52.17
2018-02-27T05:43:41.490Z,52.14
2018-02-27T05:44:43.982Z,52.17
2018-02-27T05:45:46.460Z,52.32
2018-02-27T05:46:48.948Z,52.23
2018-02-27T05:47:51.421Z,52.17
2018-02-27T05:48:53.939Z,52.19
2018-02-27T05:49:56.411Z,52.21
2018-02-27T05:50:58.883Z,52.19
2018-02-27T05:52:01.359Z,51.83
2018-02-27T05:53:03.865Z,51.88
2018-02-27T05:54:06.360Z,52.04
2018-02-27T05:55:08.835Z,52.18
2018-02-27T05:56:11.307Z,52.28
2018-02-27T05:57:13.801Z,52.31
2018-02-27T05:58:16.276Z,52.27
2018-02-27T05:59:18.763Z,52.30
2018-02-27T06:00:21.246Z,52.36
2018-02-27T06:01:23.733Z,52.36
2018-02-27T06:02:26.199Z,52.36
2018-02-27T06:03:28.675Z,52.38
2018-02-27T06:04:31.197Z,52.40
2018-02-27T06:05:33.680Z,52.41
2018-02-27T06:06:36.155Z,52.44
2018-02-27T06:07:38.632Z,52.40
2018-02-27T06:08:41.105Z,52.36
2018-02-27T06:09:43.600Z,52.34
2018-02-27T06:10:46.076Z,52.35
2018-02-27T06:11:48.561Z,52.29
2018-02-27T06:12:51.046Z,52.43
2018-02-27T06:13:53.520Z,52.47
2018-02-27T06:14:56.025Z,52.49
2018-02-27T06:15:58.495Z,52.54
2018-02-27T06:17:00.976Z,52.34
2018-02-27T06:18:03.452Z,52.30
2018-02-27T06:19:05.946Z,52.31
2018-02-27T06:20:08.454Z,52.17
2018-02-27T06:21:10.936Z,52.08
2018-02-27T06:22:13.428Z,52.10
2018-02-27T06:23:15.911Z,52.08
2018-02-27T06:24:18.379Z,52.21
2018-02-27T06:25:20.893Z,52.26
2018-02-27T06:26:23.380Z,52.33
2018-02-27T06:27:25.853Z,52.69
2018-02-27T06:28:28.448Z,52.90
2018-02-27T06:29:30.926Z,52.89
2018-02-27T06:30:33.446Z,52.82
2018-02-27T06:31:35.952Z,52.73
2018-02-27T06:32:38.428Z,52.73
2018-02-27T06:33:40.917Z,52.76
2018-02-27T06:34:43.402Z,52.74
2018-02-27T06:35:45.900Z,52.77
2018-02-27T06:36:48.372Z,52.76
2018-02-27T06:37:50.843Z,52.73
2018-02-27T06:38:53.320Z,52.70
2018-02-27T06:39:55.794Z,52.69
2018-02-27T06:40:58.301Z,52.68
2018-02-27T06:42:00.775Z,52.65
2018-02-27T06:43:03.247Z,52.59
2018-02-27T06:44:05.733Z,52.55
2018-02-27T06:45:08.211Z,52.60
2018-02-27T06:46:10.719Z,52.65
2018-02-27T06:47:13.251Z,52.58
2018-02-27T06:48:15.757Z,52.52
2018-02-27T06:49:18.566Z,52.55
2018-02-27T06:50:21.067Z,52.55
2018-02-27T06:51:23.575Z,52.58
2018-02-27T06:52:26.048Z,52.50
2018-02-27T06:53:28.547Z,52.49
2018-02-27T06:54:31.019Z,52.34
2018-02-27T06:55:33.517Z,52.16
2018-02-27T06:56:36.015Z,52.09
2018-02-27T06:57:38.561Z,52.15
2018-02-27T06:58:41.036Z,52.13
2018-02-27T06:59:43.520Z,52.10
2018-02-27T07:00:45.997Z,52.19
2018-02-27T07:01:48.501Z,52.27
2018-02-27T07:02:51.000Z,52.10
2018-02-27T07:03:53.509Z,52.26
2018-02-27T07:04:55.993Z,52.39
2018-02-27T07:05:58.475Z,52.97
2018-02-27T07:07:00.990Z,53.20
2018-02-27T07:08:03.478Z,52.16
2018-02-27T07:09:05.970Z,51.98
2018-02-27T07:10:08.456Z,51.32
2018-02-27T07:11:10.927Z,50.89
2018-02-27T07:12:13.411Z,51.13
2018-02-27T07:13:15.936Z,51.54
2018-02-27T07:14:18.438Z,51.58
2018-02-27T07:15:20.951Z,51.53
2018-02-27T07:16:23.443Z,51.49
2018-02-27T07:17:25.935Z,51.18
2018-02-27T07:18:28.425Z,51.85
2018-02-27T07:19:30.904Z,52.15
2018-02-27T07:20:33.375Z,52.09
2018-02-27T07:21:35.871Z,52.01
2018-02-27T07:22:38.466Z,52.25
2018-02-27T07:23:40.965Z,52.43
2018-02-27T07:24:43.508Z,52.51
2018-02-27T07:25:45.979Z,52.70
2018-02-27T07:26:48.461Z,52.67
2018-02-27T07:27:51.013Z,52.65
2018-02-27T07:28:53.508Z,52.19
2018-02-27T07:29:56.000Z,52.16
2018-02-27T07:30:58.489Z,53.09
2018-02-27T07:32:00.981Z,52.92
2018-02-27T07:33:03.485Z,52.53
2018-02-27T07:34:05.965Z,51.79
2018-02-27T07:35:08.457Z,49.95
2018-02-27T07:36:10.941Z,49.98
2018-02-27T07:37:13.429Z,46.86
2018-02-27T07:38:15.922Z,46.18
2018-02-27T07:39:18.417Z,45.19
2018-02-27T07:40:20.913Z,44.15
2018-02-27T07:41:23.392Z,44.03
2018-02-27T07:42:25.876Z,43.23
2018-02-27T07:43:28.383Z,42.75
2018-02-27T07:44:30.873Z,42.24
2018-02-27T07:45:33.393Z,41.82
2018-02-27T07:46:35.867Z,41.59
2018-02-27T07:47:38.353Z,41.30
2018-02-27T07:48:40.848Z,41.37
2018-02-27T07:49:43.399Z,40.84
2018-02-27T07:50:45.888Z,40.33
2018-02-27T07:51:48.374Z,39.26
2018-02-27T07:52:50.855Z,38.21
2018-02-27T07:53:53.349Z,37.54
2018-02-27T07:54:55.836Z,37.52
2018-02-27T07:55:58.325Z,38.12
2018-02-27T07:57:00.800Z,38.97
2018-02-27T07:58:03.290Z,37.86
2018-02-27T07:59:05.763Z,37.00
2018-02-27T08:00:08.250Z,36.40
2018-02-27T08:01:10.722Z,36.41
2018-02-27T08:02:13.217Z,36.40
2018-02-27T08:03:15.693Z,36.08
2018-02-27T08:04:18.167Z,36.80
2018-02-27T08:05:20.657Z,35.83
2018-02-27T08:06:23.165Z,34.89
2018-02-27T08:07:25.673Z,34.50
2018-02-27T08:08:28.161Z,34.46
2018-02-27T08:09:30.636Z,34.45
2018-02-27T08:10:33.107Z,34.02
2018-02-27T08:11:35.603Z,33.77
2018-02-27T08:12:38.079Z,33.34
2018-02-27T08:13:40.572Z,33.99
2018-02-27T08:14:43.050Z,34.55
2018-02-27T08:15:45.577Z,35.31
2018-02-27T08:16:48.053Z,33.66
2018-02-27T08:17:50.537Z,33.78
2018-02-27T08:18:53.028Z,33.56
2018-02-27T08:19:55.507Z,33.34
2018-02-27T08:20:57.982Z,33.18
2018-02-27T08:22:00.469Z,32.39
2018-02-27T08:23:02.944Z,31.89
2018-02-27T08:24:05.427Z,31.64
2018-02-27T08:25:07.901Z,31.87
2018-02-27T08:26:10.392Z,32.39
2018-02-27T08:27:12.872Z,31.90
2018-02-27T08:28:15.382Z,31.64
2018-02-27T08:29:17.912Z,32.18
2018-02-27T08:30:20.396Z,31.81
2018-02-27T08:31:22.887Z,30.95
2018-02-27T08:32:25.388Z,31.57
2018-02-27T08:33:27.875Z,31.98
2018-02-27T08:34:30.386Z,32.33
2018-02-27T08:35:32.885Z,31.40
2018-02-27T08:36:35.366Z,31.21
2018-02-27T08:37:37.846Z,31.61
2018-02-27T08:38:40.354Z,31.76
2018-02-27T08:39:42.820Z,31.20
2018-02-27T08:40:45.310Z,31.10
2018-02-27T08:41:47.830Z,31.19
2018-02-27T08:42:50.359Z,31.57
2018-02-27T08:43:53.015Z,30.84
2018-02-27T08:44:55.513Z,30.96
2018-02-27T08:45:57.993Z,31.04
2018-02-27T08:47:00.468Z,30.73
2018-02-27T08:48:02.957Z,30.51
2018-02-27T08:49:05.450Z,30.86
2018-02-27T08:50:07.991Z,29.94
2018-02-27T08:51:10.501Z,30.09
2018-02-27T08:52:12.991Z,30.14
2018-02-27T08:53:15.467Z,30.43
2018-02-27T08:54:17.956Z,31.08
2018-02-27T08:55:20.446Z,30.84
2018-02-27T08:56:22.923Z,30.81
2018-02-27T08:57:25.411Z,30.99
2018-02-27T08:58:27.897Z,31.32
2018-02-27T08:59:30.398Z,31.07
2018-02-27T09:00:32.886Z,31.19
2018-02-27T09:01:35.372Z,31.31
2018-02-27T09:02:37.874Z,31.63
2018-02-27T09:03:40.356Z,31.43
2018-02-27T09:04:42.853Z,31.66
2018-02-27T09:05:45.319Z,31.77
2018-02-27T09:06:47.819Z,31.84
2018-02-27T09:07:50.314Z,31.37
2018-02-27T09:08:52.808Z,32.13
2018-02-27T09:09:55.314Z,32.38
2018-02-27T09:10:57.796Z,32.76
2018-02-27T09:12:00.259Z,33.24
2018-02-27T09:13:02.766Z,33.10
2018-02-27T09:14:05.270Z,33.03
2018-02-27T09:15:07.757Z,33.22
2018-02-27T09:16:10.242Z,33.31
2018-02-27T09:17:12.734Z,33.86
2018-02-27T09:18:15.216Z,33.57
2018-02-27T09:19:17.888Z,33.58
2018-02-27T09:20:20.506Z,33.64
2018-02-27T09:21:22.964Z,33.68
2018-02-27T09:22:25.596Z,33.98
2018-02-27T09:23:28.068Z,33.66
2018-02-27T09:24:30.552Z,33.90
2018-02-27T09:25:33.070Z,33.86
2018-02-27T09:26:35.507Z,33.89
2018-02-27T09:27:38.014Z,33.99
2018-02-27T09:28:40.555Z,34.30
2018-02-27T09:29:43.069Z,34.31
2018-02-27T09:30:45.558Z,34.26
2018-02-27T09:31:48.028Z,34.79
2018-02-27T09:32:50.496Z,34.60
2018-02-27T09:33:52.971Z,34.78
2018-02-27T09:34:55.793Z,34.85
2018-02-27T09:35:58.271Z,35.15
2018-02-27T09:37:00.764Z,34.96
2018-02-27T09:38:03.261Z,34.98
2018-02-27T09:39:05.750Z,34.34
2018-02-27T09:40:08.234Z,34.42
2018-02-27T09:41:11.018Z,34.82
2018-02-27T09:42:13.778Z,35.09
2018-02-27T09:43:16.271Z,35.19
2018-02-27T09:44:19.654Z,36.20
2018-02-27T09:45:22.235Z,35.46
2018-02-27T09:46:24.725Z,36.01
2018-02-27T09:47:27.279Z,35.87
2018-02-27T09:48:29.747Z,36.35
2018-02-27T09:49:32.212Z,36.84
2018-02-27T09:50:34.678Z,36.39
2018-02-27T09:51:37.152Z,36.62
2018-02-27T09:52:39.630Z,36.24
2018-02-27T09:53:42.109Z,35.61
2018-02-27T09:54:44.576Z,35.75
2018-02-27T09:55:47.079Z,35.34
2018-02-27T09:56:49.675Z,35.73
2018-02-27T09:57:52.158Z,35.51
2018-02-27T09:58:54.637Z,34.98
2018-02-27T09:59:57.282Z,34.92
2018-02-27T10:00:59.753Z,35.29
2018-02-27T10:02:02.376Z,35.42
2018-02-27T10:03:04.847Z,35.47
2018-02-27T10:04:07.344Z,35.82
2018-02-27T10:05:09.971Z,35.81
2018-02-27T10:06:12.502Z,36.02
2018-02-27T10:07:14.967Z,36.13
2018-02-27T10:08:18.039Z,36.21
2018-02-27T10:09:20.532Z,36.26
2018-02-27T10:10:23.008Z,36.44
2018-02-27T10:11:25.477Z,36.32
2018-02-27T10:12:27.977Z,36.61
2018-02-27T10:13:30.453Z,36.49
2018-02-27T10:14:32.939Z,37.02
2018-02-27T10:15:35.428Z,36.63
2018-02-27T10:16:37.895Z,36.53
2018-02-27T10:17:40.398Z,36.77
2018-02-27T10:18:42.891Z,36.47
2018-02-27T10:19:45.385Z,36.20
2018-02-27T10:20:47.868Z,36.16
2018-02-27T10:21:50.355Z,36.32
2018-02-27T10:22:52.823Z,36.63
2018-02-27T10:23:55.300Z,36.55
2018-02-27T10:24:57.806Z,36.96
2018-02-27T10:26:00.454Z,36.96
2018-02-27T10:27:02.931Z,37.02
2018-02-27T10:28:05.406Z,37.43
2018-02-27T10:29:07.890Z,37.41
2018-02-27T10:30:10.363Z,37.55
2018-02-27T10:31:12.823Z,37.79
2018-02-27T10:32:15.291Z,37.34
2018-02-27T10:33:17.759Z,37.62
2018-02-27T10:34:20.238Z,37.16
2018-02-27T10:35:23.069Z,35.85
2018-02-27T10:36:25.557Z,35.80
2018-02-27T10:37:28.023Z,35.38
2018-02-27T10:38:30.491Z,35.35
2018-02-27T10:39:32.955Z,35.24
2018-02-27T10:40:35.419Z,35.19
2018-02-27T10:41:37.890Z,35.00
2018-02-27T10:42:40.373Z,35.05
2018-02-27T10:43:42.864Z,35.00
2018-02-27T10:44:45.327Z,34.93
2018-02-27T10:45:47.799Z,34.95
2018-02-27T10:46:50.281Z,34.99
2018-02-27T10:47:52.775Z,35.24
2018-02-27T10:48:55.246Z,35.22
2018-02-27T10:49:57.732Z,35.24
2018-02-27T10:51:00.213Z,35.08
2018-02-27T10:52:02.679Z,35.15
2018-02-27T10:53:05.162Z,35.12
2018-02-27T10:54:07.645Z,34.99
2018-02-27T10:55:10.111Z,34.83
2018-02-27T10:56:12.605Z,34.68
2018-02-27T10:57:15.112Z,34.58
2018-02-27T10:58:17.570Z,34.75
2018-02-27T10:59:20.035Z,34.69
2018-02-27T11:00:28.131Z,34.65
2018-02-27T11:01:30.596Z,34.65
2018-02-27T11:02:33.073Z,34.67
2018-02-27T11:03:35.534Z,34.76
2018-02-27T11:04:38.009Z,34.78
2018-02-27T11:05:40.476Z,34.59
2018-02-27T11:06:42.947Z,34.64
2018-02-27T11:07:45.425Z,34.37
2018-02-27T11:08:47.895Z,34.37
2018-02-27T11:09:50.366Z,34.54
2018-02-27T11:10:52.832Z,34.41
2018-02-27T11:11:55.339Z,34.44
2018-02-27T11:12:57.828Z,34.17
2018-02-27T11:14:00.337Z,34.10
2018-02-27T11:15:02.813Z,34.20
2018-02-27T11:16:05.282Z,34.13
2018-02-27T11:17:07.783Z,33.92
2018-02-27T11:18:10.249Z,33.83
2018-02-27T11:19:12.742Z,33.83
2018-02-27T11:20:15.221Z,34.03
2018-02-27T11:21:17.688Z,34.07
2018-02-27T11:22:20.201Z,34.19
2018-02-27T11:23:22.718Z,34.04
2018-02-27T11:24:25.187Z,34.11
2018-02-27T11:25:27.711Z,34.02
2018-02-27T11:26:30.194Z,34.33
2018-02-27T11:27:32.698Z,34.02
2018-02-27T11:28:35.168Z,33.80
2018-02-27T11:29:37.650Z,33.73
2018-02-27T11:30:40.115Z,33.63
2018-02-27T11:31:42.604Z,33.67
2018-02-27T11:32:45.103Z,33.67
2018-02-27T11:33:47.586Z,33.48
2018-02-27T11:34:50.080Z,33.49
2018-02-27T11:35:52.556Z,33.49
2018-02-27T11:36:55.053Z,33.72
2018-02-27T11:37:57.561Z,33.75
2018-02-27T11:39:00.032Z,33.38
2018-02-27T11:40:02.527Z,33.26
2018-02-27T11:41:05.012Z,32.42
2018-02-27T11:42:07.491Z,31.71
2018-02-27T11:43:09.984Z,31.69
2018-02-27T11:44:12.451Z,31.82
2018-02-27T11:45:14.915Z,30.37
2018-02-27T11:46:17.393Z,30.12
2018-02-27T11:47:19.877Z,28.53
2018-02-27T11:48:22.371Z,28.25
2018-02-27T11:49:24.914Z,27.87
2018-02-27T11:50:27.399Z,28.04
2018-02-27T11:51:29.894Z,28.48
2018-02-27T11:52:32.384Z,28.68
2018-02-27T11:53:35.078Z,28.63
2018-02-27T11:54:37.557Z,28.79
2018-02-27T11:55:40.386Z,28.95
2018-02-27T11:56:42.859Z,29.04
2018-02-27T11:57:45.484Z,29.08
2018-02-27T11:58:48.006Z,28.90
2018-02-27T11:59:50.498Z,28.89
2018-02-27T12:00:52.977Z,28.88
2018-02-27T12:01:55.438Z,28.99
2018-02-27T12:02:57.904Z,28.79
2018-02-27T12:04:00.386Z,28.88
2018-02-27T12:05:02.859Z,28.79
2018-02-27T12:06:05.324Z,28.84
2018-02-27T12:07:07.799Z,28.87
2018-02-27T12:08:10.277Z,29.04
2018-02-27T12:09:12.772Z,28.64
2018-02-27T12:10:15.240Z,27.84
2018-02-27T12:11:17.720Z,27.84
2018-02-27T12:12:20.205Z,27.77
2018-02-27T12:13:22.691Z,27.71
2018-02-27T12:14:25.176Z,27.57
2018-02-27T12:15:27.681Z,27.77
2018-02-27T12:16:30.136Z,27.82
2018-02-27T12:17:32.598Z,28.01
2018-02-27T12:18:35.098Z,28.14
2018-02-27T12:19:37.566Z,28.24
2018-02-27T12:20:40.070Z,28.51
2018-02-27T12:21:42.540Z,28.41
2018-02-27T12:22:45.018Z,28.53
2018-02-27T12:23:47.483Z,28.79
2018-02-27T12:24:49.975Z,28.85
2018-02-27T12:25:52.485Z,28.87
2018-02-27T12:26:54.966Z,28.63
2018-02-27T12:27:57.458Z,28.23
2018-02-27T12:28:59.939Z,28.22
2018-02-27T12:30:02.455Z,28.30
2018-02-27T12:31:04.942Z,28.22
2018-02-27T12:32:07.440Z,28.03
2018-02-27T12:33:09.929Z,28.11
2018-02-27T12:34:12.435Z,28.02
2018-02-27T12:35:14.927Z,28.14
2018-02-27T12:36:17.421Z,28.36
2018-02-27T12:37:19.894Z,28.56
2018-02-27T12:38:22.409Z,28.45
2018-02-27T12:39:24.887Z,28.44
2018-02-27T12:40:27.365Z,28.43
2018-02-27T12:41:29.827Z,28.57
2018-02-27T12:42:32.310Z,28.50
2018-02-27T12:43:34.793Z,28.63
2018-02-27T12:44:37.273Z,28.61
2018-02-27T12:45:39.757Z,28.57
2018-02-27T12:46:42.221Z,28.51
2018-02-27T12:47:44.691Z,28.24
2018-02-27T12:48:47.482Z,28.10
2018-02-27T12:49:49.964Z,27.51
2018-02-27T12:50:52.443Z,27.78
2018-02-27T12:51:54.909Z,27.78
2018-02-27T12:52:57.383Z,27.69
2018-02-27T12:53:59.847Z,27.98
2018-02-27T12:55:02.318Z,28.14
2018-02-27T12:56:04.802Z,28.23
2018-02-27T12:57:07.283Z,28.31
2018-02-27T12:58:09.747Z,28.45
2018-02-27T12:59:12.215Z,28.70
2018-02-27T13:00:14.697Z,28.54
2018-02-27T13:01:17.173Z,28.51
2018-02-27T13:02:19.737Z,28.60
2018-02-27T13:03:22.221Z,28.61
2018-02-27T13:04:24.701Z,28.65
2018-02-27T13:05:27.176Z,28.52
2018-02-27T13:06:29.648Z,28.33
2018-02-27T13:07:32.138Z,28.39
2018-02-27T13:08:34.617Z,28.54
2018-02-27T13:09:37.110Z,28.43
2018-02-27T13:10:39.593Z,28.19
2018-02-27T13:11:42.071Z,28.05
2018-02-27T13:12:44.535Z,27.64
2018-02-27T13:13:47.009Z,27.75
2018-02-27T13:14:49.476Z,27.75
2018-02-27T13:16:53.741Z,27.86
2018-02-27T13:17:56.203Z,28.13
2018-02-27T13:18:58.681Z,28.27
2018-02-27T13:20:01.157Z,28.43
2018-02-27T13:21:03.624Z,28.50
2018-02-27T13:22:06.120Z,28.55
2018-02-27T13:23:08.606Z,28.64
2018-02-27T13:24:11.088Z,28.26
2018-02-27T13:25:13.566Z,28.85
2018-02-27T13:26:16.053Z,28.22